Time;durP1;ratioP1;P1;durP2;ratioP2;P2;SDS_P1;SDS_P2;PMS_P1;PMS_P2;Temp;Humidity;BMP_temperature;BMP_pressure;BME280_temperature;BME280_humidity;BME280_pressure;Samples;Min_cycle;Max_cycle;Signal;HPM_P1;HPM_P2
2023/11/12 00:01:40;;;;;;;8.13;4.38;;;4.20;99.90;;;;;;5126747;28;20035;-52
2023/11/12 00:04:06;;;;;;;14.38;9.18;;;4.20;99.90;;;;;;5126506;28;20285;-52
2023/11/12 00:06:31;;;;;;;6.70;4.07;;;4.20;99.90;;;;;;5125773;28;20040;-51
2023/11/12 00:08:57;;;;;;;8.10;3.83;;;4.20;99.90;;;;;;5126710;28;20292;-53
2023/11/12 00:11:23;;;;;;;6.82;4.35;;;4.20;99.90;;;;;;5126576;28;20209;-52
2023/11/12 00:13:49;;;;;;;7.65;4.55;;;4.20;99.90;;;;;;5126154;28;20038;-53
2023/11/12 00:16:15;;;;;;;8.02;4.32;;;4.20;99.90;;;;;;5126421;28;20246;-53
2023/11/12 00:18:40;;;;;;;13.52;4.53;;;4.10;99.90;;;;;;5126576;28;20047;-53
2023/11/12 00:21:06;;;;;;;6.55;4.40;;;4.10;99.90;;;;;;5127104;28;20019;-53
2023/11/12 00:23:36;;;;;;;6.85;3.78;;;4.00;99.90;;;;;;5126028;28;20020;-53
2023/11/12 00:26:02;;;;;;;11.80;4.10;;;4.00;99.90;;;;;;5126790;28;20111;-53
2023/11/12 00:28:27;;;;;;;8.68;4.30;;;4.00;99.90;;;;;;5125194;28;20041;-53
2023/11/12 00:30:54;;;;;;;11.02;4.65;;;4.00;99.90;;;;;;5125291;28;20047;-53
2023/11/12 00:33:21;;;;;;;7.43;3.78;;;4.00;99.90;;;;;;5126527;28;20051;-53
2023/11/12 00:35:47;;;;;;;10.13;4.05;;;4.00;99.90;;;;;;5126442;28;20016;-52
2023/11/12 00:38:13;;;;;;;9.10;3.95;;;3.90;99.90;;;;;;5126309;28;20030;-54
2023/11/12 00:40:38;;;;;;;11.35;5.78;;;3.90;99.90;;;;;;5126726;28;20073;-52
2023/11/12 00:43:04;;;;;;;7.53;4.05;;;3.80;99.90;;;;;;5126511;28;20173;-53
2023/11/12 00:45:30;;;;;;;9.27;4.05;;;3.80;99.90;;;;;;5126367;28;20016;-53
2023/11/12 00:47:57;;;;;;;10.00;4.18;;;3.80;99.90;;;;;;5126135;28;20273;-53
2023/11/12 00:50:23;;;;;;;6.97;4.15;;;3.80;99.90;;;;;;5126663;28;20026;-53
2023/11/12 00:52:49;;;;;;;11.63;4.93;;;3.70;99.90;;;;;;5126371;28;20045;-54
2023/11/12 00:55:15;;;;;;;7.88;4.45;;;3.80;99.90;;;;;;5126375;28;20047;-52
2023/11/12 00:57:40;;;;;;;9.82;4.18;;;3.80;99.90;;;;;;5126811;28;20173;-52
2023/11/12 01:00:08;;;;;;;7.18;4.00;;;3.90;99.90;;;;;;5125081;28;20019;-53
2023/11/12 01:02:33;;;;;;;7.40;3.67;;;3.90;99.90;;;;;;5126116;28;20292;-54
2023/11/12 01:04:59;;;;;;;9.63;3.70;;;3.90;99.90;;;;;;5126070;28;20051;-51
2023/11/12 01:07:25;;;;;;;7.93;3.42;;;4.00;99.90;;;;;;5125644;28;20043;-52
2023/11/12 01:09:50;;;;;;;10.23;3.67;;;4.10;99.90;;;;;;5125590;28;20028;-53
2023/11/12 01:12:19;;;;;;;8.82;3.30;;;4.10;99.90;;;;;;5125974;28;20024;-53
2023/11/12 01:14:45;;;;;;;8.68;3.40;;;4.00;99.90;;;;;;5125961;28;20032;-52
2023/11/12 01:17:11;;;;;;;7.13;3.47;;;4.10;99.90;;;;;;5125915;28;20047;-52
2023/11/12 01:19:36;;;;;;;6.60;3.55;;;4.10;99.90;;;;;;5125967;28;20019;-52
2023/11/12 01:22:03;;;;;;;6.55;3.40;;;4.20;99.90;;;;;;5124662;28;20042;-52
2023/11/12 01:24:29;;;;;;;6.93;3.20;;;4.10;99.90;;;;;;5125739;28;20059;-52
2023/11/12 01:26:54;;;;;;;7.40;3.03;;;4.20;99.90;;;;;;5124513;28;20028;-52
2023/11/12 01:29:20;;;;;;;7.35;2.78;;;4.20;99.90;;;;;;5125483;28;20334;-52
2023/11/12 01:31:46;;;;;;;4.90;3.05;;;4.20;99.90;;;;;;5124872;28;20163;-52
2023/11/12 01:34:14;;;;;;;6.85;2.97;;;4.20;99.90;;;;;;5125577;28;20178;-52
2023/11/12 01:36:39;;;;;;;5.88;2.88;;;4.30;99.90;;;;;;5125734;28;20300;-52
2023/11/12 01:39:08;;;;;;;4.40;2.72;;;4.30;99.90;;;;;;5124638;28;20031;-53
2023/11/12 01:41:33;;;;;;;5.15;2.25;;;4.30;99.90;;;;;;5125631;28;20019;-52
2023/11/12 01:43:59;;;;;;;5.43;2.85;;;4.30;99.90;;;;;;5109218;28;20028;-52
2023/11/12 01:46:26;;;;;;;6.30;2.90;;;4.30;99.90;;;;;;5129433;28;20039;-53
2023/11/12 01:48:53;;;;;;;3.95;2.72;;;4.30;99.90;;;;;;5111593;28;20076;-52
2023/11/12 01:51:20;;;;;;;5.15;2.58;;;4.30;99.90;;;;;;5129529;28;20019;-53
2023/11/12 01:53:46;;;;;;;9.85;2.70;;;4.30;99.90;;;;;;5112030;28;20095;-53
2023/11/12 01:56:12;;;;;;;4.57;2.53;;;4.30;99.90;;;;;;5129973;28;20019;-53
2023/11/12 01:58:38;;;;;;;7.75;2.65;;;4.30;99.90;;;;;;5129059;28;20034;-53
2023/11/12 02:01:04;;;;;;;6.38;2.40;;;4.40;99.90;;;;;;5111377;28;20039;-52
2023/11/12 02:03:30;;;;;;;5.10;2.47;;;4.40;99.90;;;;;;5128140;28;20054;-51
2023/11/12 02:05:56;;;;;;;6.80;2.72;;;4.40;99.90;;;;;;5127940;28;20032;-52
2023/11/12 02:08:23;;;;;;;7.57;2.35;;;4.40;99.90;;;;;;5128961;28;20075;-52
2023/11/12 02:10:52;;;;;;;6.95;2.60;;;4.40;99.90;;;;;;5128161;28;20034;-50
2023/11/12 02:13:18;;;;;;;4.15;2.30;;;4.50;99.90;;;;;;5128655;28;20058;-50
2023/11/12 02:15:45;;;;;;;7.72;2.20;;;4.70;99.90;;;;;;5128588;28;20024;-52
2023/11/12 02:18:10;;;;;;;5.03;2.22;;;5.00;99.90;;;;;;5128821;28;20094;-51
2023/11/12 02:20:43;;;;;;;3.67;2.03;;;5.20;99.90;;;;;;5128895;28;20023;-49
2023/11/12 02:23:09;;;;;;;7.10;2.53;;;5.30;99.90;;;;;;5128920;28;20069;-50
2023/11/12 02:25:36;;;;;;;7.22;2.33;;;5.40;99.90;;;;;;5127831;28;20032;-49
2023/11/12 02:28:03;;;;;;;7.13;2.30;;;5.40;99.90;;;;;;5128862;28;20091;-53
2023/11/12 02:30:28;;;;;;;5.57;2.10;;;5.60;99.90;;;;;;5128347;28;20032;-52
2023/11/12 02:32:55;;;;;;;7.60;2.42;;;5.60;99.90;;;;;;5128665;28;20331;-53
2023/11/12 02:35:20;;;;;;;3.97;2.22;;;5.60;99.90;;;;;;5128623;28;20035;-52
2023/11/12 02:37:46;;;;;;;5.00;2.25;;;5.60;99.90;;;;;;5128685;28;20189;-53
2023/11/12 02:40:12;;;;;;;7.10;2.50;;;5.60;99.90;;;;;;5128332;28;20073;-53
2023/11/12 02:42:38;;;;;;;3.42;2.10;;;5.60;99.90;;;;;;5128644;28;20038;-53
2023/11/12 02:45:05;;;;;;;5.88;2.22;;;5.50;99.90;;;;;;5127415;28;20023;-53
2023/11/12 02:47:31;;;;;;;4.65;2.28;;;5.50;99.90;;;;;;5128142;28;20027;-53
2023/11/12 02:50:24;;;;;;;4.47;2.20;;;5.50;99.90;;;;;;5128471;28;20050;-53
2023/11/12 02:52:50;;;;;;;4.50;2.10;;;5.40;99.90;;;;;;5128496;28;20271;-53
2023/11/12 02:55:16;;;;;;;4.65;2.20;;;5.40;99.90;;;;;;5126092;28;20023;-53
2023/11/12 02:57:44;;;;;;;4.10;1.90;;;5.30;99.90;;;;;;5128403;28;20031;-52
2023/11/12 03:00:10;;;;;;;4.25;2.00;;;5.30;99.90;;;;;;5128029;28;20274;-53
2023/11/12 03:02:36;;;;;;;4.20;1.83;;;5.30;99.90;;;;;;5127643;28;20026;-53
2023/11/12 03:05:02;;;;;;;6.35;1.80;;;5.30;99.90;;;;;;5127760;28;20027;-53
2023/11/12 03:07:27;;;;;;;6.22;2.10;;;5.30;99.90;;;;;;5127694;28;20305;-53
2023/11/12 03:09:54;;;;;;;4.47;2.25;;;5.30;99.90;;;;;;5127828;28;20091;-52
2023/11/12 03:12:20;;;;;;;4.15;1.88;;;5.20;99.90;;;;;;5127996;28;20031;-54
2023/11/12 03:14:46;;;;;;;4.82;2.30;;;5.20;99.90;;;;;;5127965;28;20196;-52
2023/11/12 03:17:12;;;;;;;5.03;2.00;;;5.20;99.90;;;;;;5127823;28;20285;-52
2023/11/12 03:19:39;;;;;;;4.65;1.80;;;5.20;99.90;;;;;;5127486;28;20054;-52
2023/11/12 03:22:05;;;;;;;3.85;1.70;;;5.20;99.90;;;;;;5127634;28;20028;-52
2023/11/12 03:24:31;;;;;;;4.85;1.90;;;5.20;99.90;;;;;;5126815;28;20264;-56
2023/11/12 03:26:56;;;;;;;3.70;1.90;;;5.20;99.90;;;;;;5127679;28;20301;-52
2023/11/12 03:29:23;;;;;;;4.50;1.80;;;5.10;99.90;;;;;;5127445;28;20042;-52
2023/11/12 03:31:50;;;;;;;2.50;1.65;;;5.20;99.90;;;;;;5127038;28;20028;-52
2023/11/12 03:34:16;;;;;;;3.33;1.70;;;5.10;99.90;;;;;;5127163;28;20312;-53
2023/11/12 03:36:41;;;;;;;3.90;1.50;;;5.10;99.90;;;;;;5127423;28;20024;-51
2023/11/12 03:39:08;;;;;;;5.57;1.85;;;5.20;99.90;;;;;;5127318;28;20023;-52
2023/11/12 03:41:34;;;;;;;5.13;1.60;;;5.20;99.90;;;;;;5127236;28;20015;-52
2023/11/12 03:44:00;;;;;;;3.20;1.50;;;5.20;99.90;;;;;;5127329;28;20099;-52
2023/11/12 03:46:26;;;;;;;5.97;2.05;;;5.20;99.90;;;;;;5126015;28;20269;-52
2023/11/12 03:48:51;;;;;;;6.20;1.80;;;5.30;99.90;;;;;;5127168;28;20124;-52
2023/11/12 03:51:17;;;;;;;8.65;2.22;;;5.30;99.90;;;;;;5126721;28;20066;-52
2023/11/12 03:53:43;;;;;;;2.60;1.75;;;5.20;99.90;;;;;;5127086;28;20035;-52
2023/11/12 03:56:08;;;;;;;4.85;2.60;;;5.20;99.90;;;;;;5125984;28;20047;-52
2023/11/12 03:58:35;;;;;;;5.80;1.88;;;5.20;99.90;;;;;;5125921;28;20293;-52
2023/11/12 04:01:01;;;;;;;4.75;2.15;;;5.20;99.90;;;;;;5126961;28;20277;-52
2023/11/12 04:03:27;;;;;;;4.90;2.00;;;5.30;99.90;;;;;;5126491;28;20031;-54
2023/11/12 04:05:53;;;;;;;3.72;1.90;;;5.20;99.90;;;;;;5126111;28;20027;-53
2023/11/12 04:08:19;;;;;;;3.92;2.17;;;5.30;99.90;;;;;;5125662;28;20059;-52
2023/11/12 04:10:46;;;;;;;5.20;2.28;;;5.30;99.90;;;;;;5125975;28;20288;-53
2023/11/12 04:13:12;;;;;;;4.32;2.08;;;5.30;99.90;;;;;;5126766;28;20169;-53
2023/11/12 04:15:38;;;;;;;4.78;2.40;;;5.30;99.90;;;;;;5125510;28;20289;-52
2023/11/12 04:18:03;;;;;;;4.03;2.30;;;5.40;99.90;;;;;;5125670;28;20027;-52
2023/11/12 04:20:30;;;;;;;4.45;2.53;;;5.50;99.90;;;;;;5126559;28;20035;-50
2023/11/12 04:22:59;;;;;;;5.80;2.30;;;5.70;99.90;;;;;;5126684;28;20083;-53
2023/11/12 04:25:25;;;;;;;5.43;2.55;;;6.10;99.90;;;;;;5126393;28;20179;-52
2023/11/12 04:27:50;;;;;;;3.88;2.58;;;6.30;99.90;;;;;;5126486;28;20062;-54
2023/11/12 04:30:17;;;;;;;4.05;2.30;;;6.40;99.90;;;;;;5126381;28;20024;-52
2023/11/12 04:32:44;;;;;;;5.95;2.75;;;6.60;99.90;;;;;;5126583;28;20036;-52
2023/11/12 04:35:11;;;;;;;4.10;2.70;;;6.60;99.90;;;;;;5126326;28;20046;-58
2023/11/12 04:37:39;;;;;;;5.45;2.28;;;6.80;99.90;;;;;;5126114;28;20027;-53
2023/11/12 04:40:06;;;;;;;3.47;2.35;;;6.80;99.90;;;;;;5126346;28;20020;-51
2023/11/12 04:42:32;;;;;;;5.45;2.40;;;6.80;99.90;;;;;;5126557;28;20252;-52
2023/11/12 04:44:58;;;;;;;3.60;2.10;;;6.90;99.90;;;;;;5126362;28;20285;-51
2023/11/12 04:47:24;;;;;;;3.10;2.10;;;6.90;99.90;;;;;;5126486;28;20032;-53
2023/11/12 04:49:51;;;;;;;3.13;2.08;;;6.90;99.90;;;;;;5126175;28;20145;-52
2023/11/12 04:52:17;;;;;;;3.03;2.10;;;6.80;99.90;;;;;;5125091;28;20027;-53
2023/11/12 04:54:47;;;;;;;3.08;1.60;;;6.90;99.90;;;;;;5125666;28;20024;-52
2023/11/12 04:57:13;;;;;;;6.50;2.10;;;7.00;99.90;;;;;;5126241;28;20032;-53
2023/11/12 04:59:40;;;;;;;6.07;1.98;;;7.00;99.90;;;;;;5126229;28;20277;-52
2023/11/12 05:02:06;;;;;;;3.20;1.90;;;7.20;99.90;;;;;;5124983;28;20064;-53
2023/11/12 05:04:32;;;;;;;4.63;2.00;;;7.30;99.90;;;;;;5126138;28;20027;-53
2023/11/12 05:06:58;;;;;;;4.40;2.05;;;7.40;99.90;;;;;;5125776;28;20052;-52
2023/11/12 05:09:23;;;;;;;2.70;1.90;;;7.40;99.90;;;;;;5126232;28;20092;-51
2023/11/12 05:11:49;;;;;;;4.43;2.28;;;7.50;99.90;;;;;;5124935;28;20067;-53
2023/11/12 05:14:15;;;;;;;5.25;2.20;;;7.50;99.90;;;;;;5124918;28;20027;-55
2023/11/12 05:16:43;;;;;;;4.30;2.15;;;7.60;99.90;;;;;;5126257;28;20028;-55
2023/11/12 05:19:09;;;;;;;2.83;1.75;;;7.60;99.90;;;;;;5127277;28;20032;-53
2023/11/12 05:21:35;;;;;;;3.33;2.00;;;7.60;99.90;;;;;;5130025;28;20020;-55
2023/11/12 05:24:01;;;;;;;4.35;2.20;;;7.60;99.90;;;;;;5129967;28;20027;-55
2023/11/12 05:26:26;;;;;;;3.03;1.80;;;7.60;99.90;;;;;;5128903;28;20286;-55
2023/11/12 05:28:52;;;;;;;5.22;2.28;;;7.50;99.90;;;;;;5129006;28;20077;-55
2023/11/12 05:31:17;;;;;;;5.00;2.25;;;7.50;99.90;;;;;;5129912;28;20058;-55
2023/11/12 05:33:43;;;;;;;4.80;2.15;;;7.50;99.90;;;;;;5129561;28;20035;-54
2023/11/12 05:36:09;;;;;;;5.13;2.40;;;7.50;99.90;;;;;;5129731;28;20147;-54
2023/11/12 05:38:34;;;;;;;5.35;2.40;;;7.50;99.90;;;;;;5129824;28;20027;-55
2023/11/12 05:41:00;;;;;;;6.10;2.60;;;7.50;99.90;;;;;;5129282;28;20302;-56
2023/11/12 05:43:26;;;;;;;4.82;2.85;;;7.60;99.90;;;;;;5129664;28;20028;-53
2023/11/12 05:45:52;;;;;;;4.25;2.40;;;7.60;99.90;;;;;;5128531;28;20034;-53
2023/11/12 05:48:17;;;;;;;6.20;2.90;;;7.60;99.90;;;;;;5129653;28;20047;-55
2023/11/12 05:50:43;;;;;;;6.15;2.53;;;7.60;99.90;;;;;;5129579;28;20165;-53
2023/11/12 05:53:09;;;;;;;4.60;2.63;;;7.60;99.90;;;;;;5128468;28;20023;-54
2023/11/12 05:55:35;;;;;;;4.60;2.33;;;7.60;99.90;;;;;;5129369;28;20031;-53
2023/11/12 05:58:00;;;;;;;4.68;2.40;;;7.50;99.90;;;;;;5129265;28;20027;-55
2023/11/12 06:00:26;;;;;;;4.05;2.65;;;7.50;99.90;;;;;;5129606;28;20065;-54
2023/11/12 06:02:51;;;;;;;5.65;2.75;;;7.60;99.90;;;;;;5129355;28;20028;-53
2023/11/12 06:05:17;;;;;;;5.82;2.90;;;7.60;99.90;;;;;;5129148;28;20042;-55
2023/11/12 06:07:43;;;;;;;10.15;2.85;;;7.50;99.90;;;;;;5128997;28;20050;-54
2023/11/12 06:10:09;;;;;;;4.03;2.80;;;7.50;99.90;;;;;;5129099;28;20043;-54
2023/11/12 06:12:35;;;;;;;4.93;2.63;;;7.40;99.90;;;;;;5128797;28;20104;-55
2023/11/12 06:15:00;;;;;;;7.18;3.13;;;7.30;99.90;;;;;;5129062;28;20023;-53
2023/11/12 06:17:26;;;;;;;6.18;3.20;;;7.30;99.90;;;;;;5129188;28;20031;-55
2023/11/12 06:19:52;;;;;;;5.55;2.80;;;7.30;99.90;;;;;;5128985;28;20076;-53
2023/11/12 06:22:18;;;;;;;5.22;2.97;;;7.20;99.90;;;;;;5128860;28;20031;-52
2023/11/12 06:24:43;;;;;;;6.35;2.90;;;7.20;99.90;;;;;;5127890;28;20035;-53
2023/11/12 06:27:09;;;;;;;5.13;2.60;;;7.10;99.90;;;;;;5128879;28;20162;-53
2023/11/12 06:29:35;;;;;;;4.85;2.85;;;7.10;99.90;;;;;;5128269;28;20046;-51
2023/11/12 06:32:02;;;;;;;5.15;2.65;;;7.00;99.90;;;;;;5128714;28;20193;-54
2023/11/12 06:34:27;;;;;;;4.50;2.53;;;7.00;99.90;;;;;;5128613;28;20035;-52
2023/11/12 06:36:53;;;;;;;5.22;2.50;;;6.90;99.90;;;;;;5128663;28;20012;-52
2023/11/12 06:39:19;;;;;;;6.00;2.55;;;6.80;99.90;;;;;;5128223;28;20031;-53
2023/11/12 06:41:44;;;;;;;5.05;2.63;;;6.80;99.90;;;;;;5128289;28;20036;-53
2023/11/12 06:44:11;;;;;;;10.40;3.22;;;6.80;99.90;;;;;;5127376;28;20145;-53
2023/11/12 06:46:37;;;;;;;8.25;3.25;;;6.80;99.90;;;;;;5128401;28;20106;-53
2023/11/12 06:49:03;;;;;;;16.08;3.90;;;6.80;99.90;;;;;;5127297;28;20035;-54
2023/11/12 06:51:29;;;;;;;6.97;2.72;;;6.70;99.90;;;;;;5128324;28;20178;-53
2023/11/12 06:53:55;;;;;;;6.18;2.78;;;6.70;99.90;;;;;;5128185;28;20070;-53
2023/11/12 06:56:23;;;;;;;7.32;2.60;;;6.70;99.90;;;;;;5128190;28;20169;-53
2023/11/12 06:58:48;;;;;;;7.55;3.10;;;6.70;99.90;;;;;;5127301;28;20020;-53
2023/11/12 07:01:14;;;;;;;5.65;2.80;;;6.70;99.90;;;;;;5127606;28;20312;-54
2023/11/12 07:03:40;;;;;;;7.07;3.13;;;6.70;99.90;;;;;;5127987;28;20079;-53
2023/11/12 07:06:06;;;;;;;5.38;2.83;;;6.70;99.90;;;;;;5127949;28;20091;-54
2023/11/12 07:08:32;;;;;;;6.72;2.83;;;6.70;99.90;;;;;;5127844;28;20056;-54
2023/11/12 07:11:00;;;;;;;6.43;3.00;;;6.70;99.90;;;;;;5127951;28;20027;-53
2023/11/12 07:13:26;;;;;;;5.18;2.80;;;6.70;99.90;;;;;;5126639;28;20027;-54
2023/11/12 07:15:52;;;;;;;5.60;2.80;;;6.70;99.90;;;;;;5127693;27;20273;-54
2023/11/12 07:18:18;;;;;;;4.30;2.65;;;6.70;99.90;;;;;;5127294;28;20189;-53
2023/11/12 07:20:44;;;;;;;5.50;3.28;;;6.70;99.90;;;;;;5127915;28;20240;-53
2023/11/12 07:23:10;;;;;;;5.63;3.28;;;6.70;99.90;;;;;;5127700;28;20303;-54
2023/11/12 07:25:35;;;;;;;6.32;3.33;;;6.70;99.90;;;;;;5127633;28;20031;-53
2023/11/12 07:28:02;;;;;;;7.25;3.30;;;6.70;99.90;;;;;;5127447;28;20159;-53
2023/11/12 07:30:28;;;;;;;7.68;3.40;;;6.80;99.90;;;;;;5127616;28;20346;-55
2023/11/12 07:32:54;;;;;;;7.97;3.08;;;6.80;99.90;;;;;;5126418;28;20035;-54
2023/11/12 07:35:20;;;;;;;6.22;3.63;;;6.80;99.90;;;;;;5126962;28;20038;-53
2023/11/12 07:37:45;;;;;;;7.55;3.35;;;6.80;99.90;;;;;;5127190;28;20024;-53
2023/11/12 07:40:15;;;;;;;5.40;3.13;;;6.80;99.90;;;;;;5127357;28;20252;-53
2023/11/12 07:42:41;;;;;;;7.50;3.38;;;6.80;99.90;;;;;;5126831;28;20106;-53
2023/11/12 07:45:10;;;;;;;5.85;3.40;;;6.80;99.90;;;;;;5127575;28;20176;-53
2023/11/12 07:47:36;;;;;;;8.80;3.22;;;6.80;99.90;;;;;;5127457;28;20084;-53
2023/11/12 07:50:03;;;;;;;8.27;3.50;;;6.90;99.90;;;;;;5126916;28;20042;-54
2023/11/12 07:52:30;;;;;;;5.88;4.00;;;6.90;99.90;;;;;;5126168;28;20099;-53
2023/11/12 07:54:56;;;;;;;7.95;3.72;;;6.90;99.90;;;;;;5126997;28;20273;-53
2023/11/12 07:57:22;;;;;;;7.97;3.70;;;7.00;99.90;;;;;;5125933;28;20031;-53
2023/11/12 07:59:48;;;;;;;6.28;3.45;;;7.00;99.90;;;;;;5125875;28;20051;-54
2023/11/12 08:02:14;;;;;;;5.15;2.92;;;7.00;99.90;;;;;;5127030;28;20087;-53
2023/11/12 08:04:39;;;;;;;6.53;3.38;;;7.00;99.90;;;;;;5126938;28;20100;-53
2023/11/12 08:07:05;;;;;;;8.68;3.90;;;7.10;99.90;;;;;;5126198;28;20062;-52
2023/11/12 08:09:30;;;;;;;8.23;4.22;;;7.10;99.90;;;;;;5126755;28;20269;-53
2023/11/12 08:11:56;;;;;;;6.88;4.00;;;7.10;99.90;;;;;;5126953;28;20332;-54
2023/11/12 08:14:24;;;;;;;5.70;3.20;;;7.10;99.90;;;;;;5126551;28;20039;-53
2023/11/12 08:16:50;;;;;;;6.78;4.18;;;7.20;99.90;;;;;;5125770;28;20032;-54
2023/11/12 08:19:16;;;;;;;7.97;3.53;;;7.20;99.90;;;;;;5126715;28;20091;-52
2023/11/12 08:21:41;;;;;;;5.07;2.70;;;7.20;99.90;;;;;;5126329;28;20039;-52
2023/11/12 08:24:07;;;;;;;6.95;2.88;;;7.30;99.90;;;;;;5126400;28;20045;-53
2023/11/12 08:26:38;;;;;;;5.85;2.67;;;7.50;99.90;;;;;;5126496;28;20305;-53
2023/11/12 08:29:06;;;;;;;6.13;3.10;;;7.70;99.90;;;;;;5126539;28;20034;-54
2023/11/12 08:31:34;;;;;;;5.70;2.90;;;7.70;99.90;;;;;;5125398;28;20024;-53
2023/11/12 08:34:00;;;;;;;8.18;3.95;;;7.80;99.90;;;;;;5126307;28;20032;-53
2023/11/12 08:36:26;;;;;;;7.93;3.47;;;7.80;99.90;;;;;;5126499;28;20020;-53
2023/11/12 08:38:51;;;;;;;9.45;5.05;;;7.80;99.90;;;;;;5126508;28;20037;-53
2023/11/12 08:41:17;;;;;;;14.00;5.90;;;7.70;99.90;;;;;;5125105;28;20023;-52
2023/11/12 08:43:45;;;;;;;9.00;4.50;;;7.60;99.90;;;;;;5126392;28;20035;-54
2023/11/12 08:46:13;;;;;;;9.05;5.30;;;7.60;99.90;;;;;;5126225;28;20027;-52
2023/11/12 08:48:42;;;;;;;5.47;3.75;;;7.60;99.90;;;;;;5126170;28;20099;-53
2023/11/12 08:51:09;;;;;;;7.22;3.97;;;7.50;99.90;;;;;;5108622;28;20286;-53
2023/11/12 08:53:42;;;;;;;9.63;4.55;;;7.50;99.90;;;;;;5124219;28;20096;-52
2023/11/12 08:56:08;;;;;;;8.88;3.15;;;7.50;99.90;;;;;;5126098;28;20028;-53
2023/11/12 08:58:34;;;;;;;4.55;2.53;;;7.50;99.90;;;;;;5126073;28;20027;-53
2023/11/12 09:01:03;;;;;;;5.05;2.60;;;7.60;99.90;;;;;;5126098;28;20023;-53
2023/11/12 09:03:29;;;;;;;7.70;2.50;;;7.70;99.90;;;;;;5125654;28;20043;-54
2023/11/12 09:05:55;;;;;;;5.47;2.35;;;7.80;99.90;;;;;;5125007;28;20024;-52
2023/11/12 09:08:21;;;;;;;5.38;2.50;;;7.80;99.90;;;;;;5125423;28;20065;-53
2023/11/12 09:10:47;;;;;;;4.80;2.45;;;7.80;99.90;;;;;;5126095;28;20027;-51
2023/11/12 09:13:13;;;;;;;5.22;1.95;;;7.80;99.90;;;;;;5126020;28;20288;-51
2023/11/12 09:15:39;;;;;;;6.43;2.30;;;7.80;99.90;;;;;;5125829;28;20076;-53
2023/11/12 09:18:05;;;;;;;4.00;1.80;;;7.80;99.90;;;;;;5125962;28;20055;-52
2023/11/12 09:20:31;;;;;;;4.45;2.75;;;7.90;99.90;;;;;;5125034;28;20024;-52
2023/11/12 09:22:56;;;;;;;3.38;1.42;;;7.90;99.90;;;;;;5125903;28;20023;-53
2023/11/12 09:25:22;;;;;;;3.58;1.60;;;7.90;99.90;;;;;;5125387;28;20035;-54
2023/11/12 09:27:48;;;;;;;2.85;1.30;;;7.90;99.90;;;;;;5125684;28;20091;-53
2023/11/12 09:30:13;;;;;;;2.97;1.33;;;7.90;99.90;;;;;;5125035;28;20288;-53
2023/11/12 09:32:40;;;;;;;4.03;1.52;;;7.90;99.90;;;;;;5125900;28;20170;-54
2023/11/12 09:35:08;;;;;;;3.00;1.25;;;8.00;99.90;;;;;;5124726;28;20035;-53
2023/11/12 09:37:34;;;;;;;2.72;1.15;;;8.00;99.90;;;;;;5125413;28;20043;-53
2023/11/12 09:40:00;;;;;;;2.97;1.35;;;7.90;99.90;;;;;;5125438;28;20039;-52
2023/11/12 09:42:27;;;;;;;2.53;1.10;;;7.90;99.90;;;;;;5125559;28;20211;-54
2023/11/12 09:44:55;;;;;;;1.67;1.30;;;7.90;99.90;;;;;;5124578;28;20020;-52
2023/11/12 09:47:35;;;;;;;2.13;1.45;;;7.90;99.90;;;;;;5125519;28;20262;-52
2023/11/12 09:50:06;;;;;;;3.05;1.60;;;7.90;99.90;;;;;;5124891;28;20039;-52
2023/11/12 09:52:32;;;;;;;3.28;1.70;;;7.90;99.90;;;;;;5125993;28;20038;-52
2023/11/12 09:54:58;;;;;;;3.00;1.63;;;7.80;99.90;;;;;;5124498;28;20032;-53
2023/11/12 09:57:24;;;;;;;2.15;1.60;;;7.80;99.90;;;;;;5107462;28;20023;-53
2023/11/12 09:59:51;;;;;;;2.80;1.63;;;7.80;99.90;;;;;;5125241;28;20023;-51
2023/11/12 10:02:17;;;;;;;3.75;1.90;;;7.80;99.90;;;;;;5124295;28;20324;-50
2023/11/12 10:04:43;;;;;;;3.88;2.03;;;7.80;99.90;;;;;;5126735;28;20027;-50
2023/11/12 10:07:12;;;;;;;4.90;1.80;;;7.80;99.90;;;;;;5127794;28;20267;-54
2023/11/12 10:09:38;;;;;;;3.43;1.80;;;7.70;99.90;;;;;;5111102;28;20035;-52
2023/11/12 10:12:04;;;;;;;2.50;1.55;;;7.80;99.90;;;;;;5128376;28;20314;-52
2023/11/12 10:14:30;;;;;;;3.20;1.85;;;7.70;99.90;;;;;;5127876;28;20032;-50
2023/11/12 10:17:06;;;;;;;2.85;1.67;;;7.70;99.90;;;;;;5128182;28;20051;-52
2023/11/12 10:19:32;;;;;;;3.80;1.77;;;7.70;99.90;;;;;;5128611;28;20035;-53
2023/11/12 10:21:58;;;;;;;4.22;2.05;;;7.70;99.90;;;;;;5128220;28;20023;-52
2023/11/12 10:24:27;;;;;;;11.02;5.90;;;7.70;99.90;;;;;;5128113;28;20051;-53
2023/11/12 10:27:00;;;;;;;7.95;4.47;;;7.80;99.90;;;;;;5127637;28;20043;-54
2023/11/12 10:29:27;;;;;;;6.63;4.10;;;7.80;99.90;;;;;;5126520;28;20073;-53
2023/11/12 10:31:53;;;;;;;4.60;2.92;;;7.80;99.90;;;;;;5126583;28;20046;-53
2023/11/12 10:34:18;;;;;;;3.90;2.03;;;7.80;99.90;;;;;;5125508;28;20337;-53
2023/11/12 10:37:07;;;;;;;3.08;1.90;;;7.80;99.90;;;;;;5125761;28;20038;-51
2023/11/12 10:39:40;;;;;;;3.03;1.80;;;7.90;99.90;;;;;;5126538;28;20094;-53
2023/11/12 10:42:28;;;;;;;2.85;1.27;;;7.90;99.90;;;;;;5125561;27;20029;-54
2023/11/12 10:44:55;;;;;;;3.28;1.70;;;7.90;99.90;;;;;;5127489;28;20031;-52
2023/11/12 10:47:32;;;;;;;1.83;1.10;;;8.00;99.90;;;;;;5128354;28;20278;-54
2023/11/12 10:49:58;;;;;;;3.65;2.20;;;8.00;99.90;;;;;;5128136;28;20028;-52
2023/11/12 10:52:23;;;;;;;6.70;3.58;;;8.00;99.90;;;;;;5127305;28;20027;-50
2023/11/12 10:54:52;;;;;;;3.92;2.22;;;8.10;99.90;;;;;;5129287;28;20177;-51
2023/11/12 10:57:21;;;;;;;5.47;2.97;;;8.10;99.90;;;;;;5127465;28;20043;-56
2023/11/12 10:59:46;;;;;;;0.80;0.80;;;8.20;99.90;;;;;;5127812;28;20032;-53
2023/11/12 11:02:17;;;;;;;0.93;0.70;;;8.40;99.90;;;;;;5127809;28;20047;-53
2023/11/12 11:04:45;;;;;;;1.38;0.88;;;8.70;99.90;;;;;;5128313;28;20333;-53
2023/11/12 11:07:11;;;;;;;1.08;0.70;;;8.80;99.90;;;;;;5127168;28;20068;-52
2023/11/12 11:09:36;;;;;;;0.90;0.90;;;8.90;99.90;;;;;;5128070;28;20031;-54
2023/11/12 11:12:03;;;;;;;0.80;0.75;;;9.00;99.90;;;;;;5127851;28;20084;-50
2023/11/12 11:14:29;;;;;;;1.15;0.88;;;9.00;99.90;;;;;;5127894;28;20094;-52
2023/11/12 11:16:55;;;;;;;1.00;0.63;;;9.00;99.90;;;;;;5126976;28;20038;-53
2023/11/12 11:19:43;;;;;;;1.25;0.68;;;9.00;99.90;;;;;;5127574;28;20043;-53
2023/11/12 11:22:25;;;;;;;1.02;0.88;;;9.00;99.90;;;;;;5126691;28;20265;-55
2023/11/12 11:24:53;;;;;;;12.57;11.55;;;9.00;99.90;;;;;;5127705;28;20042;-52
2023/11/12 11:27:21;;;;;;;3.13;2.33;;;9.10;99.90;;;;;;5128259;28;20031;-53
2023/11/12 11:30:10;;;;;;;4.03;3.15;;;9.20;99.90;;;;;;5127591;28;20023;-52
2023/11/12 11:32:37;;;;;;;1.92;0.90;;;9.30;99.90;;;;;;5127132;28;20348;-49
2023/11/12 11:35:14;;;;;;;1.75;0.82;;;9.40;99.90;;;;;;5127888;28;20100;-53
2023/11/12 11:38:11;;;;;;;9.00;8.20;;;9.40;99.90;;;;;;5127500;28;20038;-53
2023/11/12 11:40:45;;;;;;;3.88;2.70;;;9.50;99.90;;;;;;5127751;28;20038;-54
2023/11/12 11:43:22;;;;;;;2.22;1.10;;;9.60;99.90;;;;;;5126311;28;20189;-53
2023/11/12 11:46:10;;;;;;;2.42;1.00;;;9.70;99.90;;;;;;5127275;28;20050;-55
2023/11/12 11:48:42;;;;;;;6.63;5.97;;;9.80;99.90;;;;;;5125022;28;20032;-54
2023/11/12 11:51:38;;;;;;;2.65;2.45;;;9.80;99.90;;;;;;5125064;28;20035;-53
2023/11/12 11:54:04;;;;;;;5.03;4.25;;;10.00;99.90;;;;;;5125864;28;20095;-54
2023/11/12 11:56:30;;;;;;;3.33;2.95;;;10.20;99.90;;;;;;5124835;28;20031;-54
2023/11/12 11:58:56;;;;;;;1.85;1.08;;;10.20;99.90;;;;;;5126247;28;20018;-54
2023/11/12 12:01:22;;;;;;;4.03;1.23;;;10.30;99.90;;;;;;5125114;28;20024;-54
2023/11/12 12:03:48;;;;;;;5.32;4.10;;;10.30;99.90;;;;;;5126042;28;20043;-54
2023/11/12 12:06:15;;;;;;;2.15;0.90;;;10.30;99.90;;;;;;5126031;28;20297;-53
2023/11/12 12:08:51;;;;;;;6.03;2.83;;;10.30;99.90;;;;;;5126333;28;20039;-53
2023/11/12 12:11:17;;;;;;;3.70;1.38;;;10.30;99.90;;;;;;5126570;28;20027;-56
2023/11/12 12:14:06;;;;;;;0.95;0.75;;;10.20;99.90;;;;;;5091396;28;20103;-53
2023/11/12 12:16:32;;;;;;;2.67;0.73;;;10.20;99.90;;;;;;5126414;28;20308;-53
2023/11/12 12:18:58;;;;;;;10.50;8.52;;;10.20;99.90;;;;;;5125658;28;20345;-54
2023/11/12 12:21:24;;;;;;;3.92;3.38;;;10.20;99.90;;;;;;5126340;28;20080;-53
2023/11/12 12:23:50;;;;;;;7.88;3.20;;;10.10;99.90;;;;;;5125270;28;20336;-53
2023/11/12 12:26:16;;;;;;;4.97;3.95;;;10.10;99.90;;;;;;5126229;28;20023;-53
2023/11/12 12:28:42;;;;;;;6.57;2.80;;;10.20;99.90;;;;;;5125028;28;20023;-53
2023/11/12 12:31:08;;;;;;;4.60;1.73;;;10.20;99.90;;;;;;5126473;28;20031;-53
2023/11/12 12:33:36;;;;;;;3.17;1.52;;;10.30;99.90;;;;;;5126080;28;20047;-54
2023/11/12 12:36:13;;;;;;;3.63;0.93;;;10.30;99.90;;;;;;5126073;28;20028;-53
2023/11/12 12:39:09;;;;;;;5.50;1.20;;;10.30;99.90;;;;;;5125944;28;20035;-53
2023/11/12 12:41:35;;;;;;;3.15;1.13;;;10.40;99.90;;;;;;5125771;28;20034;-52
2023/11/12 12:44:01;;;;;;;5.53;1.48;;;10.30;99.90;;;;;;5125033;28;20035;-53
2023/11/12 12:46:42;;;;;;;6.40;1.35;;;10.30;99.90;;;;;;5126070;28;20327;-53
2023/11/12 12:49:09;;;;;;;4.82;1.20;;;10.30;99.90;;;;;;5126256;28;20088;-55
2023/11/12 12:51:35;;;;;;;6.20;1.30;;;10.30;99.90;;;;;;5125857;28;20095;-53
2023/11/12 12:54:03;;;;;;;6.53;3.53;;;10.30;99.90;;;;;;5124744;28;20189;-54
2023/11/12 12:56:30;;;;;;;3.65;1.55;;;10.30;99.90;;;;;;5126241;28;20086;-55